createdAt,value
2018-11-26T00:00:51.712Z,7.20
2018-11-26T00:03:19.147Z,7.20
2018-11-26T00:05:46.826Z,7.20
2018-11-26T00:08:15.484Z,7.20
2018-11-26T00:10:43.211Z,7.20
2018-11-26T00:13:10.745Z,7.20
2018-11-26T00:15:37.970Z,7.20
2018-11-26T00:18:05.626Z,7.20
2018-11-26T00:20:33.104Z,7.20
2018-11-26T00:23:00.379Z,7.20
2018-11-26T00:25:28.023Z,7.20
2018-11-26T00:27:56.221Z,7.20
2018-11-26T00:30:23.960Z,7.20
2018-11-26T00:32:52.199Z,7.20
2018-11-26T00:35:19.960Z,7.20
2018-11-26T00:37:47.979Z,7.20
2018-11-26T00:40:15.235Z,7.20
2018-11-26T00:42:42.623Z,7.20
2018-11-26T00:45:11.524Z,7.20
2018-11-26T00:47:39.163Z,7.20
2018-11-26T00:50:06.723Z,7.20
2018-11-26T00:52:34.167Z,7.20
2018-11-26T00:55:01.522Z,7.20
2018-11-26T00:57:28.891Z,7.20
2018-11-26T00:59:56.419Z,7.20
2018-11-26T01:02:23.873Z,7.20
2018-11-26T01:04:51.475Z,7.20
2018-11-26T01:07:18.962Z,7.20
2018-11-26T01:09:46.917Z,7.20
2018-11-26T01:12:14.305Z,7.20
2018-11-26T01:14:41.751Z,7.20
2018-11-26T01:17:09.453Z,7.00
2018-11-26T01:19:37.231Z,7.20
2018-11-26T01:22:04.672Z,7.20
2018-11-26T01:24:32.041Z,7.20
2018-11-26T01:27:00.241Z,7.20
2018-11-26T01:29:27.780Z,7.20
2018-11-26T01:31:56.088Z,7.20
2018-11-26T01:34:23.655Z,7.20
2018-11-26T01:36:51.155Z,7.20
2018-11-26T01:39:18.519Z,7.20
2018-11-26T01:41:45.943Z,7.20
2018-11-26T01:44:13.627Z,7.20
2018-11-26T01:46:41.057Z,7.20
2018-11-26T01:49:08.558Z,7.20
2018-11-26T01:51:35.952Z,7.20
2018-11-26T01:54:04.400Z,7.20
2018-11-26T01:56:31.628Z,7.20
2018-11-26T01:58:58.990Z,7.20
2018-11-26T02:01:26.368Z,7.20
2018-11-26T02:03:53.666Z,7.20
2018-11-26T02:06:20.990Z,7.20
2018-11-26T02:08:49.168Z,7.20
2018-11-26T02:11:16.491Z,7.20
2018-11-26T02:13:43.804Z,7.20
2018-11-26T02:16:11.055Z,7.20
2018-11-26T02:18:38.740Z,7.20
2018-11-26T02:21:06.206Z,7.20
2018-11-26T02:23:33.675Z,7.20
2018-11-26T02:26:01.400Z,7.10
2018-11-26T02:28:28.905Z,7.20
2018-11-26T02:30:57.212Z,7.20
2018-11-26T02:33:24.598Z,7.20
2018-11-26T02:35:52.989Z,7.20
2018-11-26T02:38:20.412Z,7.20
2018-11-26T02:40:48.205Z,7.20
2018-11-26T02:43:15.830Z,7.20
2018-11-26T02:45:43.213Z,7.20
2018-11-26T02:48:10.736Z,7.20
2018-11-26T02:50:38.680Z,7.20
2018-11-26T02:53:06.148Z,7.20
2018-11-26T02:55:33.672Z,7.20
2018-11-26T02:58:01.192Z,7.20
2018-11-26T03:00:28.960Z,7.20
2018-11-26T03:02:56.379Z,7.20
2018-11-26T03:05:23.823Z,7.20
2018-11-26T03:07:51.457Z,7.20
2018-11-26T03:10:18.825Z,7.20
2018-11-26T03:12:46.124Z,7.20
2018-11-26T03:15:13.551Z,7.20
2018-11-26T03:17:41.221Z,7.20
2018-11-26T03:20:08.506Z,7.20
2018-11-26T03:22:36.180Z,7.20
2018-11-26T03:25:03.681Z,7.20
2018-11-26T03:27:31.088Z,7.20
2018-11-26T03:29:59.221Z,7.20
2018-11-26T03:32:26.855Z,7.20
2018-11-26T03:34:54.546Z,7.20
2018-11-26T03:37:21.907Z,7.20
2018-11-26T03:39:49.499Z,7.20
2018-11-26T03:42:16.925Z,7.20
2018-11-26T03:44:44.282Z,7.20
2018-11-26T03:47:11.587Z,7.20
2018-11-26T03:49:40.063Z,7.20
2018-11-26T03:52:07.574Z,7.30
2018-11-26T03:54:34.883Z,7.20
2018-11-26T03:57:02.361Z,7.20
2018-11-26T03:59:30.575Z,7.20
2018-11-26T04:01:58.770Z,7.30
2018-11-26T04:04:26.114Z,7.30
2018-11-26T04:06:53.753Z,7.30
2018-11-26T04:09:21.026Z,7.30
2018-11-26T04:11:48.382Z,7.30
2018-11-26T04:14:15.703Z,7.20
2018-11-26T04:16:43.276Z,7.20
2018-11-26T04:19:10.660Z,7.00
2018-11-26T04:21:37.942Z,7.30
2018-11-26T04:24:05.602Z,7.30
2018-11-26T04:26:33.778Z,6.90
2018-11-26T04:29:01.437Z,7.30
2018-11-26T04:31:28.802Z,7.30
2018-11-26T04:33:56.770Z,7.30
2018-11-26T04:36:24.355Z,7.30
2018-11-26T04:38:51.896Z,7.30
2018-11-26T04:41:19.550Z,7.30
2018-11-26T04:43:46.917Z,7.30
2018-11-26T04:46:14.166Z,7.30
2018-11-26T04:48:41.637Z,7.30
2018-11-26T04:51:09.164Z,7.30
2018-11-26T04:53:37.361Z,7.30
2018-11-26T04:56:04.558Z,7.30
2018-11-26T04:58:32.045Z,7.30
2018-11-26T05:00:59.764Z,7.30
2018-11-26T05:03:27.969Z,7.30
2018-11-26T05:05:55.486Z,7.30
2018-11-26T05:08:22.775Z,7.30
2018-11-26T05:10:51.237Z,7.30
2018-11-26T05:13:18.671Z,7.30
2018-11-26T05:15:46.018Z,7.30
2018-11-26T05:18:13.579Z,7.30
2018-11-26T05:20:41.326Z,7.30
2018-11-26T05:23:08.573Z,7.30
2018-11-26T05:25:35.971Z,7.30
2018-11-26T05:28:03.613Z,7.30
2018-11-26T05:30:30.971Z,7.30
2018-11-26T05:32:58.652Z,7.30
2018-11-26T05:35:25.916Z,7.30
2018-11-26T05:37:53.283Z,7.30
2018-11-26T05:40:20.613Z,7.30
2018-11-26T05:42:48.254Z,7.30
2018-11-26T05:45:15.855Z,7.30
2018-11-26T05:47:43.416Z,7.30
2018-11-26T05:50:11.662Z,7.30
2018-11-26T05:52:39.255Z,7.30
2018-11-26T05:55:06.980Z,7.30
2018-11-26T05:57:34.638Z,7.30
2018-11-26T06:00:02.092Z,7.30
2018-11-26T06:02:30.591Z,7.30
2018-11-26T06:04:57.960Z,7.30
2018-11-26T06:07:25.475Z,7.30
2018-11-26T06:09:53.122Z,7.30
2018-11-26T06:12:21.038Z,7.30
2018-11-26T06:14:48.353Z,7.30
2018-11-26T06:17:15.771Z,7.30
2018-11-26T06:19:43.320Z,7.30
2018-11-26T06:22:10.975Z,7.30
2018-11-26T06:24:38.320Z,7.30
2018-11-26T06:27:05.972Z,7.30
2018-11-26T06:29:33.288Z,7.30
2018-11-26T06:32:01.234Z,7.40
2018-11-26T06:34:28.828Z,7.30
2018-11-26T06:36:56.161Z,7.40
2018-11-26T06:39:24.556Z,7.40
2018-11-26T06:41:51.882Z,7.40
2018-11-26T06:44:19.320Z,7.40
2018-11-26T06:46:46.690Z,7.40
2018-11-26T06:49:14.572Z,7.40
2018-11-26T06:51:42.003Z,7.40
2018-11-26T06:54:09.343Z,7.40
2018-11-26T06:56:36.703Z,7.40
2018-11-26T06:59:05.362Z,7.40
2018-11-26T07:01:32.771Z,7.40
2018-11-26T07:04:00.520Z,7.30
2018-11-26T07:06:28.143Z,7.40
2018-11-26T07:08:55.635Z,7.40
2018-11-26T07:11:23.440Z,7.40
2018-11-26T07:13:51.993Z,7.40
2018-11-26T07:16:19.537Z,7.40
2018-11-26T07:18:47.035Z,7.40
2018-11-26T07:21:14.826Z,7.40
2018-11-26T07:23:43.168Z,7.40
2018-11-26T07:26:10.659Z,7.40
2018-11-26T07:28:38.362Z,7.40
2018-11-26T07:31:05.643Z,7.40
2018-11-26T07:33:33.293Z,7.40
2018-11-26T07:36:00.723Z,7.40
2018-11-26T07:38:28.075Z,7.40
2018-11-26T07:40:55.373Z,7.40
2018-11-26T07:43:23.825Z,7.40
2018-11-26T07:45:51.685Z,7.40
2018-11-26T07:48:19.234Z,7.40
2018-11-26T07:50:47.061Z,7.40
2018-11-26T07:53:14.350Z,7.40
2018-11-26T07:55:43.074Z,7.40
2018-11-26T07:58:10.355Z,7.40
2018-11-26T08:00:37.762Z,7.40
2018-11-26T08:03:05.123Z,7.40
2018-11-26T08:05:33.436Z,7.50
2018-11-26T08:08:01.098Z,7.40
2018-11-26T08:10:28.574Z,7.40
2018-11-26T08:12:56.254Z,7.40
2018-11-26T08:15:24.779Z,7.40
2018-11-26T08:17:52.033Z,7.40
2018-11-26T08:20:20.218Z,7.40
2018-11-26T08:22:48.289Z,7.40
2018-11-26T08:25:17.332Z,7.40
2018-11-26T08:27:44.918Z,7.40
2018-11-26T08:30:12.418Z,7.50
2018-11-26T08:32:40.063Z,7.40
2018-11-26T08:35:07.645Z,7.50
2018-11-26T08:37:35.008Z,7.50
2018-11-26T08:40:12.674Z,7.50
2018-11-26T08:42:41.838Z,7.50
2018-11-26T08:45:11.114Z,7.50
2018-11-26T08:47:54.160Z,7.50
2018-11-26T08:50:21.617Z,7.50
2018-11-26T08:52:49.853Z,7.40
2018-11-26T08:55:17.327Z,7.10
2018-11-26T08:57:44.822Z,7.50
2018-11-26T09:00:12.349Z,7.50
2018-11-26T09:02:49.000Z,7.50
2018-11-26T09:05:24.184Z,7.50
2018-11-26T09:07:52.022Z,7.50
2018-11-26T09:10:20.441Z,7.50
2018-11-26T09:12:48.449Z,7.50
2018-11-26T09:15:15.934Z,7.50
2018-11-26T09:17:43.308Z,7.50
2018-11-26T09:20:11.743Z,7.50
2018-11-26T09:22:39.520Z,7.50
2018-11-26T09:25:07.429Z,7.50
2018-11-26T09:27:38.629Z,7.50
2018-11-26T09:30:06.005Z,7.50
2018-11-26T09:32:33.980Z,7.50
2018-11-26T09:35:01.753Z,7.50
2018-11-26T09:37:30.247Z,7.60
2018-11-26T09:39:58.387Z,7.60
2018-11-26T09:42:27.112Z,7.60
2018-11-26T09:44:55.098Z,7.60
2018-11-26T09:47:22.802Z,7.50
2018-11-26T09:49:50.517Z,7.60
2018-11-26T09:52:17.930Z,7.60
2018-11-26T09:54:46.030Z,7.60
2018-11-26T09:57:13.269Z,7.60
2018-11-26T09:59:40.532Z,7.60
2018-11-26T10:02:08.158Z,7.60
2018-11-26T10:04:35.810Z,7.60
2018-11-26T10:07:03.320Z,7.60
2018-11-26T10:09:30.689Z,7.60
2018-11-26T10:11:58.354Z,7.60
2018-11-26T10:14:27.303Z,7.60
2018-11-26T10:16:54.760Z,7.60
2018-11-26T10:19:22.167Z,7.70
2018-11-26T10:21:49.704Z,7.70
2018-11-26T10:24:17.135Z,7.70
2018-11-26T10:26:44.600Z,7.60
2018-11-26T10:29:12.334Z,7.70
2018-11-26T10:31:40.805Z,7.70
2018-11-26T10:34:08.167Z,7.70
2018-11-26T10:36:35.516Z,7.70
2018-11-26T10:39:03.762Z,7.70
2018-11-26T10:41:31.153Z,7.70
2018-11-26T10:43:58.494Z,7.70
2018-11-26T10:46:26.520Z,7.60
2018-11-26T10:48:54.048Z,7.70
2018-11-26T10:51:21.635Z,7.70
2018-11-26T10:53:49.289Z,7.70
2018-11-26T10:56:16.815Z,7.80
2018-11-26T10:58:44.199Z,7.80
2018-11-26T11:01:30.533Z,7.70
2018-11-26T11:03:58.154Z,7.80
2018-11-26T11:06:25.977Z,7.80
2018-11-26T11:08:53.699Z,7.80
2018-11-26T11:11:23.452Z,7.80
2018-11-26T11:13:49.672Z,7.80
2018-11-26T11:16:17.423Z,7.80
2018-11-26T11:18:45.081Z,7.80
2018-11-26T11:21:12.454Z,7.80
2018-11-26T11:23:40.087Z,7.40
2018-11-26T11:26:07.641Z,7.80
2018-11-26T11:28:35.011Z,7.80
2018-11-26T11:31:03.036Z,7.90
2018-11-26T11:33:30.953Z,7.90
2018-11-26T11:35:58.359Z,7.90
2018-11-26T11:38:26.796Z,7.90
2018-11-26T11:40:54.042Z,7.90
2018-11-26T11:43:21.544Z,7.90
2018-11-26T11:45:49.166Z,7.90
2018-11-26T11:48:16.694Z,7.90
2018-11-26T11:50:44.390Z,7.90
2018-11-26T11:53:13.043Z,7.90
2018-11-26T11:55:40.634Z,8.00
2018-11-26T11:58:08.360Z,8.00
2018-11-26T12:00:40.480Z,8.00
2018-11-26T12:03:08.261Z,8.00
2018-11-26T12:05:35.811Z,8.00
2018-11-26T12:08:03.968Z,8.00
2018-11-26T12:10:31.725Z,8.00
2018-11-26T12:12:59.283Z,8.00
2018-11-26T12:15:26.979Z,8.00
2018-11-26T12:17:54.728Z,8.00
2018-11-26T12:20:22.375Z,8.00
2018-11-26T12:22:50.091Z,8.10
2018-11-26T12:25:18.319Z,8.10
2018-11-26T12:27:45.748Z,8.00
2018-11-26T12:30:13.243Z,8.10
2018-11-26T12:32:40.662Z,8.10
2018-11-26T12:35:08.238Z,8.10
2018-11-26T12:37:35.512Z,8.10
2018-11-26T12:40:03.213Z,8.10
2018-11-26T12:42:30.713Z,8.10
2018-11-26T12:44:58.961Z,8.10
2018-11-26T12:47:27.842Z,8.10
2018-11-26T12:49:54.704Z,8.10
2018-11-26T12:52:22.201Z,7.80
2018-11-26T12:54:50.131Z,8.10
2018-11-26T12:57:17.744Z,8.20
2018-11-26T12:59:45.290Z,8.20
2018-11-26T13:02:12.890Z,8.20
2018-11-26T13:04:40.338Z,8.20
2018-11-26T13:07:08.001Z,8.20
2018-11-26T13:09:35.548Z,8.20
2018-11-26T13:12:03.934Z,8.20
2018-11-26T13:14:31.630Z,8.20
2018-11-26T13:16:59.400Z,8.20
2018-11-26T13:19:27.223Z,8.20
2018-11-26T13:21:55.696Z,8.20
2018-11-26T13:24:23.124Z,8.20
2018-11-26T13:26:50.600Z,8.20
2018-11-26T13:29:18.924Z,8.20
2018-11-26T13:31:46.512Z,8.30
2018-11-26T13:34:14.553Z,8.20
2018-11-26T13:36:42.093Z,8.30
2018-11-26T13:39:09.462Z,8.30
2018-11-26T13:41:36.848Z,8.30
2018-11-26T13:44:04.558Z,8.30
2018-11-26T13:46:32.024Z,8.30
2018-11-26T13:48:59.516Z,8.30
2018-11-26T13:51:26.986Z,8.30
2018-11-26T13:53:54.393Z,8.30
2018-11-26T13:56:21.904Z,8.30
2018-11-26T13:58:49.574Z,8.30
2018-11-26T14:01:17.854Z,8.30
2018-11-26T14:03:45.464Z,8.30
2018-11-26T14:06:13.004Z,8.30
2018-11-26T14:08:40.370Z,8.40
2018-11-26T14:11:08.144Z,8.30
2018-11-26T14:13:35.802Z,8.00
2018-11-26T14:16:03.060Z,8.40
2018-11-26T14:18:31.276Z,8.40
2018-11-26T14:20:58.556Z,8.40
2018-11-26T14:23:25.968Z,8.40
2018-11-26T14:25:54.213Z,8.40
2018-11-26T14:28:21.724Z,8.40
2018-11-26T14:30:49.340Z,8.40
2018-11-26T14:33:16.907Z,8.40
2018-11-26T14:35:45.583Z,8.40
2018-11-26T14:38:13.008Z,8.40
2018-11-26T14:40:42.193Z,8.40
2018-11-26T14:43:09.437Z,8.40
2018-11-26T14:45:37.370Z,8.40
2018-11-26T14:48:05.179Z,8.40
2018-11-26T14:50:32.793Z,8.40
2018-11-26T14:53:03.631Z,8.40
2018-11-26T14:55:30.914Z,8.40
2018-11-26T14:57:58.434Z,8.40
2018-11-26T15:00:26.602Z,8.40
2018-11-26T15:02:54.076Z,8.40
2018-11-26T15:05:23.086Z,8.40
2018-11-26T15:07:50.499Z,8.40
2018-11-26T15:10:18.457Z,8.40
2018-11-26T15:12:46.044Z,8.40
2018-11-26T15:15:13.713Z,8.50
2018-11-26T15:17:41.447Z,8.50
2018-11-26T15:20:08.901Z,8.40
2018-11-26T15:22:36.375Z,8.50
2018-11-26T15:25:03.881Z,8.50
2018-11-26T15:27:31.322Z,8.40
2018-11-26T15:29:59.035Z,8.50
2018-11-26T15:32:26.790Z,8.50
2018-11-26T15:34:54.269Z,8.50
2018-11-26T15:37:21.850Z,8.50
2018-11-26T15:39:49.387Z,8.50
2018-11-26T15:42:17.550Z,8.70
2018-11-26T15:44:45.571Z,8.50
2018-11-26T15:47:13.512Z,8.50
2018-11-26T15:49:42.254Z,8.50
2018-11-26T15:52:09.557Z,8.50
2018-11-26T15:54:37.171Z,8.50
2018-11-26T15:57:04.561Z,8.50
2018-11-26T15:59:31.953Z,8.50
2018-11-26T16:01:59.756Z,8.50
2018-11-26T16:04:27.524Z,8.50
2018-11-26T16:06:55.305Z,8.50
2018-11-26T16:09:22.596Z,8.50
2018-11-26T16:11:50.276Z,8.50
2018-11-26T16:14:17.670Z,8.50
2018-11-26T16:16:45.170Z,8.50
2018-11-26T16:19:14.828Z,8.50
2018-11-26T16:27:16.171Z,8.50
2018-11-26T16:29:43.600Z,8.50
2018-11-26T16:32:11.834Z,8.50
2018-11-26T16:51:16.618Z,8.50
2018-11-26T16:53:43.992Z,8.50
2018-11-26T16:56:11.472Z,8.50
2018-11-26T16:58:38.850Z,8.50
2018-11-26T17:01:07.123Z,8.50
2018-11-26T17:03:35.420Z,8.50
2018-11-26T17:06:02.782Z,8.50
2018-11-26T17:08:30.215Z,8.50
2018-11-26T17:10:57.909Z,8.50
2018-11-26T17:13:28.205Z,8.50
2018-11-26T17:15:56.738Z,8.50
2018-11-26T17:18:24.174Z,8.50
2018-11-26T17:20:53.926Z,8.50
2018-11-26T17:23:21.751Z,8.50
2018-11-26T17:25:49.126Z,8.40
2018-11-26T17:28:16.947Z,8.50
2018-11-26T17:30:45.122Z,8.50
2018-11-26T17:33:12.551Z,8.50
2018-11-26T17:35:40.590Z,8.50
2018-11-26T17:38:08.573Z,8.30
2018-11-26T17:40:36.321Z,8.50
2018-11-26T17:43:04.086Z,8.50
2018-11-26T17:45:31.443Z,8.50
2018-11-26T17:47:59.140Z,8.50
2018-11-26T17:50:28.267Z,8.50
2018-11-26T17:52:56.159Z,8.40
2018-11-26T17:55:23.657Z,8.40
2018-11-26T17:57:51.109Z,8.50
2018-11-26T18:00:18.402Z,8.40
2018-11-26T18:02:46.075Z,8.40
2018-11-26T18:05:13.450Z,8.40
2018-11-26T18:07:40.886Z,8.50
2018-11-26T18:10:08.219Z,8.20
2018-11-26T18:12:35.943Z,8.40
2018-11-26T18:15:03.355Z,8.40
2018-11-26T18:17:31.200Z,8.40
2018-11-26T18:19:58.674Z,8.40
2018-11-26T18:22:25.982Z,8.40
2018-11-26T18:24:53.308Z,8.40
2018-11-26T18:27:20.674Z,8.40
2018-11-26T18:29:48.713Z,8.40
2018-11-26T18:32:16.088Z,8.40
2018-11-26T18:34:43.474Z,8.40
2018-11-26T18:37:11.300Z,8.40
2018-11-26T18:39:38.762Z,8.40
2018-11-26T18:42:06.176Z,8.40
2018-11-26T18:44:33.803Z,8.40
2018-11-26T18:47:02.687Z,8.40
2018-11-26T18:49:29.990Z,8.40
2018-11-26T18:51:57.258Z,8.40
2018-11-26T18:54:24.791Z,8.40
2018-11-26T18:56:52.321Z,8.40
2018-11-26T18:59:19.666Z,8.40
2018-11-26T19:01:47.502Z,8.40
2018-11-26T19:04:14.922Z,8.40
2018-11-26T19:06:42.756Z,8.40
2018-11-26T19:09:10.340Z,8.40
2018-11-26T19:11:44.554Z,8.40
2018-11-26T19:14:12.049Z,8.40
2018-11-26T19:16:39.319Z,8.40
2018-11-26T19:19:06.847Z,8.40
2018-11-26T19:21:35.170Z,8.40
2018-11-26T19:24:02.533Z,8.40
2018-11-26T19:26:29.936Z,8.40
2018-11-26T19:28:57.682Z,8.40
2018-11-26T19:31:25.198Z,8.40
2018-11-26T19:33:53.047Z,8.40
2018-11-26T19:36:20.394Z,8.40
2018-11-26T19:38:47.649Z,8.40
2018-11-26T19:41:14.996Z,8.40
2018-11-26T19:43:42.697Z,8.40
2018-11-26T19:46:10.500Z,8.40
2018-11-26T19:48:37.922Z,8.40
2018-11-26T19:51:05.180Z,8.40
2018-11-26T19:53:32.458Z,8.40
2018-11-26T19:55:59.864Z,8.40
2018-11-26T19:58:27.261Z,8.40
2018-11-26T20:00:54.939Z,8.40
2018-11-26T20:03:22.237Z,8.40
2018-11-26T20:05:49.489Z,8.40
2018-11-26T20:08:16.912Z,8.40
2018-11-26T20:10:44.558Z,8.40
2018-11-26T20:13:11.913Z,8.40
2018-11-26T20:15:39.196Z,8.40
2018-11-26T20:18:06.686Z,8.30
2018-11-26T20:20:34.133Z,8.40
2018-11-26T20:23:01.545Z,8.40
2018-11-26T20:25:28.907Z,8.30
2018-11-26T20:27:56.993Z,8.30
2018-11-26T20:30:24.827Z,8.30
2018-11-26T20:32:52.254Z,8.30
2018-11-26T20:35:19.755Z,8.30
2018-11-26T20:37:47.731Z,8.30
2018-11-26T20:40:15.262Z,8.30
2018-11-26T20:42:43.104Z,8.30
2018-11-26T20:45:10.461Z,8.30
2018-11-26T20:47:37.863Z,8.30
2018-11-26T20:50:05.291Z,8.30
2018-11-26T20:52:32.559Z,8.30
2018-11-26T20:54:59.845Z,8.30
2018-11-26T20:57:27.477Z,8.30
2018-11-26T20:59:54.985Z,8.30
2018-11-26T21:02:22.770Z,8.30
2018-11-26T21:04:50.179Z,8.30
2018-11-26T21:07:17.616Z,8.30
2018-11-26T21:09:48.769Z,8.30
2018-11-26T21:12:17.251Z,8.10
2018-11-26T21:14:44.761Z,8.30
2018-11-26T21:17:15.687Z,8.30
2018-11-26T21:19:42.996Z,8.30
2018-11-26T21:22:11.696Z,8.30
2018-11-26T21:24:39.115Z,8.30
2018-11-26T21:27:06.790Z,8.30
2018-11-26T21:29:34.527Z,8.30
2018-11-26T21:32:01.956Z,8.30
2018-11-26T21:34:29.232Z,8.30
2018-11-26T21:36:56.687Z,8.30
2018-11-26T21:39:24.014Z,8.30
2018-11-26T21:41:51.420Z,8.30
2018-11-26T21:44:18.864Z,8.30
2018-11-26T21:46:46.510Z,8.30
2018-11-26T21:49:14.290Z,8.30
2018-11-26T21:51:41.800Z,8.30
2018-11-26T21:54:09.208Z,8.30
2018-11-26T21:56:36.675Z,8.30
2018-11-26T21:59:04.080Z,8.30
2018-11-26T22:01:31.566Z,8.30
2018-11-26T22:03:59.264Z,8.30
2018-11-26T22:06:26.604Z,8.30
2018-11-26T22:08:53.985Z,8.30
2018-11-26T22:11:21.385Z,8.30
2018-11-26T22:13:48.963Z,8.30
2018-11-26T22:16:16.368Z,8.30
2018-11-26T22:18:43.682Z,8.30
2018-11-26T22:21:11.529Z,8.30
2018-11-26T22:23:39.219Z,8.30
2018-11-26T22:26:06.797Z,8.30
2018-11-26T22:28:34.103Z,8.30
2018-11-26T22:31:01.601Z,8.30
2018-11-26T22:33:29.064Z,8.30
2018-11-26T22:35:56.415Z,8.30
2018-11-26T22:38:24.061Z,8.30
2018-11-26T22:40:51.381Z,8.30
2018-11-26T22:43:18.739Z,8.30
2018-11-26T22:45:46.649Z,8.20
2018-11-26T22:48:15.195Z,8.30
2018-11-26T22:50:42.684Z,8.20
2018-11-26T22:53:10.575Z,8.30
2018-11-26T22:55:37.903Z,8.20
2018-11-26T22:58:05.282Z,8.20
2018-11-26T23:00:42.430Z,8.20
2018-11-26T23:03:09.704Z,8.30
2018-11-26T23:05:37.092Z,8.30
2018-11-26T23:10:46.359Z,8.20
2018-11-26T23:13:13.846Z,8.20
2018-11-26T23:15:41.262Z,8.20
2018-11-26T23:18:08.713Z,8.20
2018-11-26T23:20:36.038Z,8.20
2018-11-26T23:23:03.367Z,8.20
2018-11-26T23:25:30.951Z,8.20
2018-11-26T23:27:58.249Z,8.20
2018-11-26T23:30:25.834Z,8.20
2018-11-26T23:32:53.183Z,8.20
2018-11-26T23:35:20.590Z,8.20
2018-11-26T23:37:48.732Z,8.20
2018-11-26T23:40:16.504Z,8.20
2018-11-26T23:42:44.061Z,8.20
2018-11-26T23:45:11.447Z,8.20
2018-11-26T23:47:39.066Z,8.20
2018-11-26T23:50:06.593Z,8.20
2018-11-26T23:52:34.477Z,8.20
2018-11-26T23:55:01.888Z,8.20
2018-11-26T23:57:29.432Z,8.20
2018-11-26T23:59:56.713Z,8.20
